Avilla, Indiana
Current Conditions -  °F | °C
As of 9:55 PM on Monday 22 Dec 2014 (Local Time) from KGWB Reporting Station
Drizzle Drizzle  
Wind Chill: 29°   Ceiling: 4700
Heat Index: 36°   Visibility: 4mi
Dew Point: 34°   Wind: 8mph
Humidity: 93%   Direction: 90°E
Pressure: 29.77"   Gusts: NA
Location:  41.37°N, 85.24°W
Report Text: KGWB 230255Z AUTO 09007KT 4SM DZ SCT038 BKN047 OVC050 02/01 A2977 RMK AO2 P0001
Loading
Personal Weather Stations






























Interactive Weather Map New forecast layout! Learn more

10-Day Weather Forecast

Advertisements
Track Severe Weather on mobile